Terminal Aerodrome Forecast
Issued by NWS

Home | Current Version | Previous Version | Text Only | Print | Product List | Glossary On
Versions: 1 2 3 4 5 6 7 8 9 10 11 12 13 14 15 16 17 18 19 20 21 22 23 24 25 26 27 28 29 30 31 32 33 34 35 36 37 38 39
000
FTUS45 KGJT 250541
TAFRIL
TAF
KRIL 250541Z 2506/2606 VRB03KT P6SM SCT090 BKN150
     FM250900 VRB03KT P6SM VCSH SCT040 BKN070
     FM251200 21006KT P6SM OVC070
     FM251700 22006KT P6SM VCSH OVC030
     FM252000 25006KT 2SM -SN BR OVC015
     FM260300 VRB03KT P6SM VCSH SCT015 OVC040=

USA.gov is the U.S. government's official web portal to all federal, state and local government web resources and services.